Time;durP1;ratioP1;P1;durP2;ratioP2;P2;SDS_P1;SDS_P2;PMS_P1;PMS_P2;Temp;Humidity;BMP_temperature;BMP_pressure;BME280_temperature;BME280_humidity;BME280_pressure;Samples;Min_cycle;Max_cycle;Signal;HPM_P1;HPM_P2
2020/12/14 00:00:48;;;;;;;18.40;10.82;;;4.60;99.90;;;;;;5030155;28;20037;-81
2020/12/14 00:03:19;;;;;;;16.52;10.02;;;4.70;99.90;;;;;;5028605;28;20381;-82
2020/12/14 00:05:55;;;;;;;16.88;9.98;;;4.60;99.90;;;;;;5030139;28;20451;-82
2020/12/14 00:08:23;;;;;;;20.08;10.40;;;4.60;99.90;;;;;;5032785;28;20456;-83
2020/12/14 00:10:50;;;;;;;26.75;12.98;;;4.60;99.90;;;;;;5029459;28;20135;-82
2020/12/14 00:13:16;;;;;;;18.58;10.75;;;4.60;99.90;;;;;;5027630;28;20088;-82
2020/12/14 00:15:42;;;;;;;21.17;10.82;;;4.50;99.90;;;;;;5030750;28;20034;-82
2020/12/14 00:18:07;;;;;;;27.38;12.50;;;4.50;99.90;;;;;;5034071;28;20031;-82
2020/12/14 00:20:33;;;;;;;18.10;10.25;;;4.50;99.90;;;;;;5029238;28;20030;-82
2020/12/14 00:22:59;;;;;;;18.00;10.15;;;4.50;99.90;;;;;;5033164;28;20036;-82
2020/12/14 00:25:25;;;;;;;28.65;11.50;;;4.50;99.90;;;;;;5033976;28;20026;-82
2020/12/14 00:27:55;;;;;;;19.50;11.00;;;4.60;99.90;;;;;;5032417;28;20374;-83
2020/12/14 00:30:23;;;;;;;18.23;11.07;;;4.50;99.90;;;;;;5032725;28;20480;-82
2020/12/14 00:32:49;;;;;;;17.65;10.45;;;4.50;99.90;;;;;;5033585;28;20083;-82
2020/12/14 00:35:18;;;;;;;20.15;10.65;;;4.50;99.90;;;;;;5030883;28;20487;-82
2020/12/14 00:37:43;;;;;;;24.30;11.63;;;4.50;99.90;;;;;;5019940;28;20048;-83
2020/12/14 00:40:09;;;;;;;19.95;10.35;;;4.50;99.90;;;;;;5035210;28;20024;-82
2020/12/14 00:42:35;;;;;;;20.48;10.82;;;4.40;99.90;;;;;;5034936;28;20040;-82
2020/12/14 00:45:05;;;;;;;21.65;11.75;;;4.40;99.90;;;;;;5031786;28;20591;-82
2020/12/14 00:47:31;;;;;;;17.65;10.65;;;4.40;99.90;;;;;;5035282;28;20491;-82
2020/12/14 00:50:01;;;;;;;24.92;12.30;;;4.30;99.90;;;;;;5034555;28;20039;-82
2020/12/14 00:52:31;;;;;;;19.08;10.77;;;4.40;99.90;;;;;;5038478;28;20117;-82
2020/12/14 00:54:57;;;;;;;18.58;11.25;;;4.30;99.90;;;;;;5035022;28;20037;-81
2020/12/14 00:57:28;;;;;;;23.02;13.40;;;4.40;99.90;;;;;;5034987;28;20625;-82
2020/12/14 00:59:57;;;;;;;22.73;12.27;;;4.30;99.90;;;;;;5030200;28;20049;-82
2020/12/14 01:02:25;;;;;;;21.42;11.27;;;4.30;99.90;;;;;;5033229;28;20270;-82
2020/12/14 01:04:51;;;;;;;20.25;11.70;;;4.30;99.90;;;;;;5031823;28;20029;-82
2020/12/14 01:07:17;;;;;;;27.05;14.65;;;4.30;99.90;;;;;;5034383;28;20086;-83
2020/12/14 01:09:43;;;;;;;24.55;12.95;;;4.30;99.90;;;;;;5032834;28;20443;-83
2020/12/14 01:12:08;;;;;;;24.98;13.65;;;4.40;99.90;;;;;;5032936;28;20057;-82
2020/12/14 01:14:34;;;;;;;24.60;12.93;;;4.40;99.90;;;;;;5034998;28;20560;-82
2020/12/14 01:17:02;;;;;;;23.48;14.00;;;4.40;99.90;;;;;;5021022;28;20034;-82
2020/12/14 01:19:28;;;;;;;29.80;15.75;;;4.40;99.90;;;;;;5032299;28;20017;-83
2020/12/14 01:21:58;;;;;;;27.60;15.00;;;4.40;99.90;;;;;;5033022;28;20562;-83
2020/12/14 01:24:24;;;;;;;23.67;13.00;;;4.40;99.90;;;;;;5048785;28;20037;-83
2020/12/14 01:26:52;;;;;;;29.88;15.55;;;4.50;99.90;;;;;;5029937;28;20473;-81
2020/12/14 01:29:17;;;;;;;30.77;15.90;;;4.50;99.90;;;;;;5032469;28;20044;-83
2020/12/14 01:31:43;;;;;;;24.90;13.95;;;4.50;99.90;;;;;;5032506;28;20021;-82
2020/12/14 01:34:13;;;;;;;24.92;13.30;;;4.60;99.90;;;;;;5036088;28;20040;-82
2020/12/14 01:36:47;;;;;;;23.35;13.38;;;4.60;99.90;;;;;;5037147;28;20045;-81
2020/12/14 01:39:15;;;;;;;27.13;14.75;;;4.60;99.90;;;;;;5026462;28;20049;-82
2020/12/14 01:41:44;;;;;;;26.35;14.35;;;4.70;99.90;;;;;;5027515;28;20153;-82
2020/12/14 01:44:09;;;;;;;26.63;15.07;;;4.80;99.90;;;;;;5031643;28;20030;-82
2020/12/14 01:46:35;;;;;;;20.48;13.38;;;4.80;99.90;;;;;;5033017;28;20037;-82
2020/12/14 01:49:01;;;;;;;22.10;13.63;;;4.90;99.90;;;;;;5034055;28;20037;-82
2020/12/14 01:51:29;;;;;;;22.70;12.88;;;4.90;99.90;;;;;;5031040;28;20025;-82
2020/12/14 01:53:59;;;;;;;24.77;14.55;;;4.90;99.90;;;;;;5029900;28;20457;-82
2020/12/14 01:56:26;;;;;;;26.15;14.25;;;5.00;99.90;;;;;;5027616;28;20042;-81
2020/12/14 01:58:57;;;;;;;24.55;13.32;;;5.00;99.90;;;;;;5029489;28;20044;-81
2020/12/14 02:01:23;;;;;;;23.73;12.57;;;5.00;99.90;;;;;;5030996;28;20036;-82
2020/12/14 02:03:49;;;;;;;22.95;13.40;;;5.00;99.90;;;;;;5033342;28;20028;-82
2020/12/14 02:06:17;;;;;;;21.60;13.32;;;5.00;99.90;;;;;;5033103;28;20033;-82
2020/12/14 02:08:43;;;;;;;22.35;12.25;;;5.00;99.90;;;;;;5033797;28;20041;-81
2020/12/14 02:11:12;;;;;;;20.92;12.73;;;5.10;99.90;;;;;;5031467;28;20065;-83
2020/12/14 02:13:37;;;;;;;22.63;13.77;;;5.10;99.90;;;;;;5034480;28;20033;-82
2020/12/14 02:16:03;;;;;;;24.20;13.93;;;5.10;99.90;;;;;;5049892;28;20471;-81
2020/12/14 02:18:31;;;;;;;24.42;13.48;;;5.10;99.90;;;;;;5032007;28;20029;-82
2020/12/14 02:20:58;;;;;;;18.23;12.13;;;5.10;99.90;;;;;;5033492;28;20625;-82
2020/12/14 02:23:27;;;;;;;22.00;12.10;;;5.10;99.90;;;;;;5031629;28;20025;-82
2020/12/14 02:25:57;;;;;;;21.30;11.88;;;5.10;99.90;;;;;;5034076;28;20025;-82
2020/12/14 02:28:22;;;;;;;20.27;12.50;;;5.10;99.90;;;;;;5033152;28;20447;-82
2020/12/14 02:30:52;;;;;;;20.45;12.68;;;5.10;99.90;;;;;;5030101;28;20101;-82
2020/12/14 02:33:18;;;;;;;21.20;12.02;;;5.10;99.90;;;;;;5028182;28;20225;-82
2020/12/14 02:35:48;;;;;;;22.55;13.02;;;5.10;99.90;;;;;;5034865;28;20439;-81
2020/12/14 02:38:14;;;;;;;19.38;11.88;;;5.10;99.90;;;;;;5029844;28;20041;-82
2020/12/14 02:40:44;;;;;;;20.25;12.10;;;5.10;99.90;;;;;;5030778;28;20041;-82
2020/12/14 02:43:12;;;;;;;15.88;10.68;;;5.00;99.90;;;;;;5015223;28;20559;-83
2020/12/14 02:45:40;;;;;;;15.52;10.60;;;5.00;99.90;;;;;;5014840;28;20075;-83
2020/12/14 02:48:06;;;;;;;14.13;10.23;;;5.00;99.90;;;;;;5014759;28;20064;-82
2020/12/14 02:50:36;;;;;;;20.70;11.77;;;5.00;99.90;;;;;;5015125;28;20116;-82
2020/12/14 02:53:04;;;;;;;14.60;9.52;;;5.10;99.90;;;;;;5015610;28;20034;-82
2020/12/14 02:55:33;;;;;;;18.88;10.50;;;5.00;99.90;;;;;;5016263;28;20038;-83
2020/12/14 02:57:58;;;;;;;20.73;11.30;;;5.00;99.90;;;;;;5029295;28;20022;-82
2020/12/14 03:00:26;;;;;;;18.05;11.40;;;5.00;99.90;;;;;;5035163;28;20036;-83
2020/12/14 03:02:52;;;;;;;17.02;9.93;;;4.90;99.90;;;;;;5016825;28;20036;-83
2020/12/14 03:05:18;;;;;;;15.77;9.80;;;4.90;99.90;;;;;;5015347;28;20026;-83
2020/12/14 03:07:48;;;;;;;19.15;10.20;;;4.90;99.90;;;;;;5014667;28;20048;-84
2020/12/14 03:10:16;;;;;;;17.90;10.05;;;4.90;99.90;;;;;;5014720;28;20057;-83
2020/12/14 03:12:42;;;;;;;16.05;9.30;;;4.90;99.90;;;;;;5014313;28;20052;-82
2020/12/14 03:15:13;;;;;;;16.55;10.43;;;4.90;99.90;;;;;;5014319;28;20038;-83
2020/12/14 03:17:41;;;;;;;18.20;10.38;;;4.80;99.90;;;;;;5015410;28;20025;-83
2020/12/14 03:20:06;;;;;;;16.98;9.48;;;4.90;99.90;;;;;;5015828;28;20036;-81
2020/12/14 03:22:32;;;;;;;16.63;10.35;;;4.80;99.90;;;;;;5016826;28;20358;-81
2020/12/14 03:25:00;;;;;;;19.40;9.68;;;4.80;99.90;;;;;;5014664;28;20025;-82
2020/12/14 03:27:25;;;;;;;16.92;9.65;;;4.80;99.90;;;;;;5015207;28;20030;-83
2020/12/14 03:29:56;;;;;;;14.50;9.52;;;4.80;99.90;;;;;;5015177;28;20443;-82
2020/12/14 03:32:21;;;;;;;16.38;9.15;;;4.80;99.90;;;;;;5014949;28;20026;-82
2020/12/14 03:34:49;;;;;;;15.70;9.90;;;4.80;99.90;;;;;;5013925;28;20040;-82
2020/12/14 03:37:17;;;;;;;16.30;9.30;;;4.80;99.90;;;;;;5014074;28;20041;-82
2020/12/14 03:39:45;;;;;;;18.92;9.80;;;4.70;99.90;;;;;;5014085;28;20025;-82
2020/12/14 03:42:11;;;;;;;14.52;9.90;;;4.70;99.90;;;;;;5015004;28;20036;-82
2020/12/14 03:44:39;;;;;;;16.60;9.35;;;4.70;99.90;;;;;;5013961;28;20026;-82
2020/12/14 03:47:04;;;;;;;14.07;8.40;;;4.80;99.90;;;;;;5014306;28;20072;-82
2020/12/14 03:49:32;;;;;;;14.80;8.75;;;4.70;99.90;;;;;;5014868;28;20116;-82
2020/12/14 03:51:58;;;;;;;15.90;8.73;;;4.70;99.90;;;;;;5014490;28;20507;-82
2020/12/14 03:54:24;;;;;;;15.00;9.43;;;4.80;99.90;;;;;;5012137;28;20044;-82
2020/12/14 03:56:49;;;;;;;14.35;9.05;;;4.80;99.90;;;;;;5015060;28;20583;-83
2020/12/14 03:59:15;;;;;;;15.88;9.27;;;4.80;99.90;;;;;;5013127;28;20029;-83
2020/12/14 04:01:45;;;;;;;11.80;8.15;;;4.80;99.90;;;;;;5014580;28;20029;-82
2020/12/14 04:04:12;;;;;;;16.15;8.88;;;4.80;99.90;;;;;;5008343;28;20049;-82
2020/12/14 04:06:38;;;;;;;15.02;8.95;;;4.80;99.90;;;;;;5013202;28;20118;-82
2020/12/14 04:09:11;;;;;;;12.85;7.97;;;4.80;99.90;;;;;;5046404;28;20459;-82
2020/12/14 04:11:39;;;;;;;11.02;7.45;;;4.90;99.90;;;;;;5013146;28;20091;-81
2020/12/14 04:14:06;;;;;;;14.20;8.18;;;4.90;99.90;;;;;;5012862;28;20041;-82
2020/12/14 04:16:34;;;;;;;11.63;7.60;;;4.90;99.90;;;;;;5014345;28;20041;-82
2020/12/14 04:19:02;;;;;;;16.05;8.82;;;4.90;99.90;;;;;;5016222;28;20490;-82
2020/12/14 04:21:30;;;;;;;13.00;8.15;;;4.90;99.90;;;;;;5013440;28;20030;-83
2020/12/14 04:23:58;;;;;;;12.85;8.50;;;4.90;99.90;;;;;;5014143;28;20025;-82
2020/12/14 04:26:26;;;;;;;15.88;8.93;;;4.80;99.90;;;;;;4995590;28;20052;-82
2020/12/14 04:28:56;;;;;;;17.42;8.95;;;4.90;99.90;;;;;;5013415;28;20136;-82
2020/12/14 04:31:24;;;;;;;14.38;8.45;;;4.90;99.90;;;;;;5014133;28;20119;-82
2020/12/14 04:33:52;;;;;;;11.88;7.45;;;4.80;99.90;;;;;;5013340;28;20075;-82
2020/12/14 04:36:17;;;;;;;14.88;8.13;;;4.80;99.90;;;;;;5013086;28;20034;-82
2020/12/14 04:38:45;;;;;;;11.82;7.80;;;4.80;99.90;;;;;;5013813;28;20049;-82
2020/12/14 04:41:14;;;;;;;14.30;8.18;;;4.90;99.90;;;;;;5012196;28;20483;-82
2020/12/14 04:43:42;;;;;;;11.63;7.45;;;4.90;99.90;;;;;;5023051;28;20037;-83
2020/12/14 04:46:08;;;;;;;15.40;7.60;;;4.90;99.90;;;;;;5013189;28;20390;-82
2020/12/14 04:48:36;;;;;;;12.48;7.07;;;4.80;99.90;;;;;;5018673;28;20030;-82
2020/12/14 04:51:04;;;;;;;14.43;8.20;;;4.80;99.90;;;;;;5019136;28;20045;-82
2020/12/14 04:53:30;;;;;;;12.15;7.50;;;4.80;99.90;;;;;;5013955;28;20040;-83
2020/12/14 04:55:55;;;;;;;13.55;7.70;;;4.80;99.90;;;;;;5023621;28;20801;-82
2020/12/14 04:58:21;;;;;;;14.43;8.13;;;4.80;99.90;;;;;;5008360;28;20075;-81
2020/12/14 05:00:46;;;;;;;10.55;7.20;;;4.80;99.90;;;;;;5014369;28;20030;-82
2020/12/14 05:03:12;;;;;;;12.65;7.90;;;4.80;99.90;;;;;;5017394;28;20075;-82
2020/12/14 05:05:38;;;;;;;13.30;7.15;;;4.80;99.90;;;;;;5016757;28;20455;-82
2020/12/14 05:08:04;;;;;;;11.55;7.05;;;4.80;99.90;;;;;;5018462;28;20044;-82
2020/12/14 05:10:30;;;;;;;11.65;7.45;;;4.70;99.90;;;;;;5016624;28;20483;-82
2020/12/14 05:12:56;;;;;;;13.02;6.90;;;4.70;99.90;;;;;;5017832;28;20367;-81
2020/12/14 05:15:31;;;;;;;10.85;7.07;;;4.70;99.90;;;;;;5016581;28;20037;-82
2020/12/14 05:18:16;;;;;;;12.57;6.78;;;4.70;99.90;;;;;;5016569;28;20033;-81
2020/12/14 05:20:45;;;;;;;12.68;7.35;;;4.70;99.90;;;;;;5026778;28;20032;-82
2020/12/14 05:23:11;;;;;;;11.30;7.28;;;4.70;99.90;;;;;;5016115;28;20116;-82
2020/12/14 05:25:41;;;;;;;13.70;7.15;;;4.60;99.90;;;;;;5037294;28;20120;-82
2020/12/14 05:28:14;;;;;;;11.70;7.07;;;4.50;99.90;;;;;;5032765;28;20044;-82
2020/12/14 05:30:50;;;;;;;11.30;7.30;;;4.60;99.90;;;;;;5032304;28;20037;-82
2020/12/14 05:33:23;;;;;;;11.68;6.78;;;4.60;99.90;;;;;;5001703;28;20040;-82
2020/12/14 05:35:49;;;;;;;10.98;6.40;;;4.50;99.90;;;;;;5016892;28;20377;-83
2020/12/14 05:38:19;;;;;;;11.98;6.65;;;4.50;99.90;;;;;;5016342;28;20046;-82
2020/12/14 05:40:54;;;;;;;10.00;6.40;;;4.50;99.90;;;;;;5015068;28;20026;-82
2020/12/14 05:43:24;;;;;;;9.65;6.30;;;4.50;99.90;;;;;;5017357;28;20474;-82
2020/12/14 05:45:53;;;;;;;10.30;6.45;;;4.50;99.90;;;;;;5018005;28;20041;-82
2020/12/14 05:48:22;;;;;;;9.55;6.55;;;4.50;99.90;;;;;;5016320;28;20032;-83
2020/12/14 05:50:54;;;;;;;11.30;6.70;;;4.50;99.90;;;;;;5016630;28;20041;-82
2020/12/14 05:53:22;;;;;;;12.03;7.43;;;4.50;99.90;;;;;;5026643;28;20029;-83
2020/12/14 05:55:50;;;;;;;10.20;6.50;;;4.50;99.90;;;;;;5047508;28;20037;-82
2020/12/14 05:58:16;;;;;;;12.63;7.15;;;4.40;99.90;;;;;;5004914;28;20041;-81
2020/12/14 06:00:50;;;;;;;12.55;7.50;;;4.40;99.90;;;;;;5015508;28;20041;-81
2020/12/14 06:03:15;;;;;;;11.90;6.35;;;4.40;99.90;;;;;;5000961;28;20037;-82
2020/12/14 06:05:46;;;;;;;13.85;7.15;;;4.40;99.90;;;;;;5016702;28;20900;-83
2020/12/14 06:08:40;;;;;;;11.85;7.63;;;4.40;99.90;;;;;;5016428;28;20176;-82
2020/12/14 06:11:08;;;;;;;13.80;8.30;;;4.40;99.90;;;;;;5009315;28;20049;-82
2020/12/14 06:13:50;;;;;;;13.32;7.57;;;4.40;99.90;;;;;;5016949;28;20033;-81
2020/12/14 06:16:29;;;;;;;11.50;7.05;;;4.40;99.90;;;;;;5031903;28;20121;-83
2020/12/14 06:18:57;;;;;;;11.48;7.85;;;4.40;99.90;;;;;;5016789;28;20021;-82
2020/12/14 06:21:36;;;;;;;11.27;7.38;;;4.50;99.90;;;;;;5016144;28;20591;-82
2020/12/14 06:24:05;;;;;;;11.88;7.40;;;4.50;99.90;;;;;;5035974;28;20021;-82
2020/12/14 06:26:34;;;;;;;14.02;8.60;;;4.50;99.90;;;;;;5026459;28;20045;-83
2020/12/14 06:29:02;;;;;;;12.88;7.60;;;4.50;99.90;;;;;;5009903;28;20053;-83
2020/12/14 06:31:37;;;;;;;16.65;8.85;;;4.50;99.90;;;;;;5016547;28;20187;-82
2020/12/14 06:34:21;;;;;;;12.85;7.88;;;4.50;99.90;;;;;;5015670;28;20044;-83
2020/12/14 06:36:47;;;;;;;12.20;6.88;;;4.50;99.90;;;;;;5015505;28;20033;-82
2020/12/14 06:39:29;;;;;;;11.68;7.00;;;4.50;99.90;;;;;;5014941;28;20045;-81
2020/12/14 06:42:14;;;;;;;16.27;8.05;;;4.60;99.90;;;;;;5015910;28;20030;-82
2020/12/14 06:44:43;;;;;;;13.82;8.18;;;4.60;99.90;;;;;;5014759;28;20106;-81
2020/12/14 06:47:17;;;;;;;12.23;6.88;;;4.60;99.90;;;;;;5014789;28;20068;-83
2020/12/14 06:49:44;;;;;;;13.15;7.22;;;4.60;99.90;;;;;;5015625;28;20481;-82
2020/12/14 06:52:10;;;;;;;12.98;7.28;;;4.60;99.90;;;;;;5033235;28;20514;-82
2020/12/14 06:54:42;;;;;;;11.82;7.90;;;4.60;99.90;;;;;;5035121;28;20033;-82
2020/12/14 06:57:08;;;;;;;13.57;7.78;;;4.70;99.90;;;;;;5015273;28;20029;-81
2020/12/14 06:59:37;;;;;;;14.73;8.57;;;4.70;99.90;;;;;;5015064;28;20061;-82
2020/12/14 07:02:11;;;;;;;11.57;7.70;;;4.70;99.90;;;;;;5015607;28;20064;-83
2020/12/14 07:04:38;;;;;;;12.80;7.50;;;4.70;99.90;;;;;;5015579;28;20029;-82
2020/12/14 07:07:07;;;;;;;14.40;7.43;;;4.80;99.90;;;;;;5033742;28;20025;-82
2020/12/14 07:09:38;;;;;;;11.07;7.78;;;4.80;99.90;;;;;;5028305;28;20037;-82
2020/12/14 07:12:12;;;;;;;15.38;8.13;;;4.70;99.90;;;;;;5004340;28;20025;-83
2020/12/14 07:14:50;;;;;;;11.63;7.45;;;4.80;99.90;;;;;;5031354;28;20039;-83
2020/12/14 07:17:19;;;;;;;10.48;6.90;;;4.80;99.90;;;;;;5018064;28;20033;-82
2020/12/14 07:19:49;;;;;;;11.40;7.28;;;4.80;99.90;;;;;;5028361;28;20017;-82
2020/12/14 07:22:21;;;;;;;12.15;7.22;;;4.90;99.90;;;;;;5066035;28;20045;-83
2020/12/14 07:25:13;;;;;;;10.32;5.80;;;4.90;99.90;;;;;;5015389;28;20141;-82
2020/12/14 07:27:38;;;;;;;12.32;7.18;;;4.80;99.90;;;;;;5014111;28;20036;-82
2020/12/14 07:30:08;;;;;;;10.30;7.05;;;4.80;99.90;;;;;;5015215;28;20479;-83
2020/12/14 07:32:34;;;;;;;13.50;7.95;;;4.80;99.90;;;;;;5016226;28;20415;-82
2020/12/14 07:34:59;;;;;;;12.18;8.38;;;4.80;99.90;;;;;;5027470;28;20061;-82
2020/12/14 07:37:30;;;;;;;11.90;7.90;;;4.80;99.90;;;;;;5027750;28;20087;-82
2020/12/14 07:39:58;;;;;;;10.00;6.78;;;4.80;99.90;;;;;;5012675;28;20104;-82
2020/12/14 07:42:27;;;;;;;14.88;8.38;;;4.90;99.90;;;;;;5016096;28;20509;-83
2020/12/14 07:45:17;;;;;;;12.63;7.60;;;4.90;99.90;;;;;;5013990;28;20033;-81
2020/12/14 07:47:43;;;;;;;12.20;7.60;;;4.90;99.90;;;;;;5030476;28;20021;-77
2020/12/14 07:50:19;;;;;;;12.43;7.25;;;4.90;99.90;;;;;;5024423;28;20033;-79
2020/12/14 07:52:54;;;;;;;12.10;7.55;;;4.90;99.90;;;;;;5013565;28;20022;-79
2020/12/14 07:55:26;;;;;;;12.85;7.38;;;4.90;99.90;;;;;;5012070;28;20033;-79
2020/12/14 07:57:57;;;;;;;11.45;7.40;;;4.90;99.90;;;;;;5009427;28;20104;-79
2020/12/14 08:00:24;;;;;;;12.65;6.95;;;5.00;99.90;;;;;;5015183;28;20033;-79
2020/12/14 08:02:50;;;;;;;10.40;6.97;;;5.00;99.90;;;;;;5020686;28;20034;-81
2020/12/14 08:05:19;;;;;;;12.02;7.50;;;5.00;99.90;;;;;;5013869;28;21852;-81
2020/12/14 08:07:52;;;;;;;10.15;7.13;;;5.00;99.90;;;;;;5016976;28;20048;-82
2020/12/14 08:10:30;;;;;;;13.45;7.60;;;5.00;99.90;;;;;;5024886;28;20092;-82
2020/12/14 08:13:01;;;;;;;10.93;6.95;;;5.10;99.90;;;;;;5014454;28;20052;-82
2020/12/14 08:15:30;;;;;;;9.75;6.78;;;5.10;99.90;;;;;;5022565;28;20478;-80
2020/12/14 08:18:01;;;;;;;12.90;7.88;;;5.10;99.90;;;;;;5013979;28;20124;-79
2020/12/14 08:20:41;;;;;;;12.18;7.38;;;5.10;99.90;;;;;;5006318;28;20025;-79
2020/12/14 08:23:20;;;;;;;12.75;6.90;;;5.20;99.90;;;;;;5014307;28;20057;-79
2020/12/14 08:25:50;;;;;;;11.55;7.22;;;5.20;99.90;;;;;;4999878;28;20112;-80
2020/12/14 08:28:15;;;;;;;12.43;7.00;;;5.20;99.90;;;;;;5013064;28;20807;-79
2020/12/14 08:30:43;;;;;;;12.27;7.00;;;5.30;99.90;;;;;;5013471;28;20102;-79
2020/12/14 08:33:14;;;;;;;12.13;7.00;;;5.20;99.90;;;;;;5013483;28;20030;-78
2020/12/14 08:35:45;;;;;;;10.40;6.40;;;5.30;99.90;;;;;;5013530;28;20037;-82
2020/12/14 08:38:22;;;;;;;10.18;6.45;;;5.30;99.90;;;;;;5018274;28;20126;-81
2020/12/14 08:40:58;;;;;;;12.55;7.68;;;5.30;99.90;;;;;;5017417;28;20030;-74
2020/12/14 08:43:27;;;;;;;11.23;6.97;;;5.30;99.90;;;;;;5017115;28;20065;-82
2020/12/14 08:45:55;;;;;;;11.50;6.50;;;5.40;99.90;;;;;;5018956;28;20030;-85
2020/12/14 08:48:21;;;;;;;11.13;7.22;;;5.40;99.90;;;;;;5017757;28;20034;-77
2020/12/14 08:50:47;;;;;;;12.20;6.93;;;5.40;99.90;;;;;;5017283;28;20051;-79
2020/12/14 08:53:13;;;;;;;9.98;6.13;;;5.50;99.90;;;;;;5016964;28;20092;-81
2020/12/14 08:55:40;;;;;;;12.05;6.28;;;5.50;99.90;;;;;;5016678;28;20033;-81
2020/12/14 08:58:09;;;;;;;12.48;7.85;;;5.50;99.90;;;;;;5029108;28;20100;-75
2020/12/14 09:00:35;;;;;;;11.40;6.95;;;5.50;99.90;;;;;;5034548;28;20035;-78
2020/12/14 09:03:01;;;;;;;11.48;6.53;;;5.60;99.90;;;;;;5031992;28;20037;-80
2020/12/14 09:05:31;;;;;;;12.27;6.55;;;5.60;99.90;;;;;;5035285;28;20379;-82
2020/12/14 09:08:11;;;;;;;10.15;7.30;;;5.60;99.90;;;;;;5033823;28;20036;-82
2020/12/14 09:10:39;;;;;;;13.25;6.95;;;5.60;99.90;;;;;;5020364;28;20075;-82
2020/12/14 09:13:05;;;;;;;11.85;7.13;;;5.60;99.90;;;;;;5034012;28;20031;-82
2020/12/14 09:15:32;;;;;;;9.38;6.20;;;5.70;99.90;;;;;;5031222;28;20060;-82
2020/12/14 09:18:07;;;;;;;11.20;7.35;;;5.70;99.90;;;;;;5027614;28;20084;-82
2020/12/14 09:20:36;;;;;;;10.98;6.13;;;5.70;99.90;;;;;;5022915;28;20049;-82
2020/12/14 09:23:02;;;;;;;10.88;6.55;;;5.70;99.90;;;;;;5032812;28;20068;-82
2020/12/14 09:25:28;;;;;;;9.48;5.80;;;5.80;99.90;;;;;;5032463;28;20057;-82
2020/12/14 09:27:56;;;;;;;10.38;6.50;;;5.70;99.90;;;;;;5030932;28;20106;-82
2020/12/14 09:30:22;;;;;;;10.65;6.40;;;5.80;99.90;;;;;;5028229;28;20029;-82
2020/12/14 09:32:51;;;;;;;10.10;6.40;;;5.80;99.90;;;;;;5017963;28;20030;-82
2020/12/14 09:35:17;;;;;;;11.60;6.47;;;5.80;99.90;;;;;;5030866;28;20057;-82
2020/12/14 09:37:42;;;;;;;11.10;6.03;;;5.80;99.90;;;;;;5029269;28;20057;-82
2020/12/14 09:40:11;;;;;;;12.52;6.53;;;5.90;99.90;;;;;;5033817;28;20025;-82
2020/12/14 09:42:41;;;;;;;9.85;5.82;;;5.80;99.90;;;;;;5030797;28;20026;-82
2020/12/14 09:45:07;;;;;;;10.32;6.53;;;5.80;99.90;;;;;;5031680;28;20509;-82
2020/12/14 09:47:33;;;;;;;12.30;6.50;;;5.90;99.90;;;;;;5031173;28;20052;-82
2020/12/14 09:50:00;;;;;;;11.50;7.05;;;5.90;99.90;;;;;;5029070;28;20104;-81
2020/12/14 09:52:27;;;;;;;17.50;11.00;;;5.90;99.90;;;;;;5030009;28;20057;-82
2020/12/14 09:54:55;;;;;;;9.68;6.15;;;5.90;99.90;;;;;;5030626;28;20029;-82
2020/12/14 09:57:21;;;;;;;13.10;6.30;;;6.00;99.90;;;;;;5033899;28;20026;-82
2020/12/14 09:59:47;;;;;;;11.90;7.03;;;6.00;99.90;;;;;;5011221;28;20080;-83
2020/12/14 10:02:15;;;;;;;10.57;7.03;;;6.00;99.90;;;;;;5029546;28;20044;-82
2020/12/14 10:04:43;;;;;;;12.70;7.10;;;6.10;99.90;;;;;;5034940;28;20290;-82
2020/12/14 10:07:09;;;;;;;12.38;6.88;;;6.00;99.90;;;;;;5030152;28;20029;-82
2020/12/14 10:09:35;;;;;;;14.48;7.15;;;6.00;99.90;;;;;;5016688;28;20048;-82
2020/12/14 10:12:04;;;;;;;9.73;6.63;;;6.00;99.90;;;;;;5031798;28;20033;-82
2020/12/14 10:14:30;;;;;;;12.93;7.18;;;6.00;99.90;;;;;;5033540;28;20036;-83
2020/12/14 10:16:58;;;;;;;13.25;7.28;;;6.00;99.90;;;;;;5032350;28;20072;-83
2020/12/14 10:19:24;;;;;;;12.15;7.20;;;6.00;99.90;;;;;;5034295;28;20096;-82
2020/12/14 10:21:52;;;;;;;13.57;7.38;;;6.00;99.90;;;;;;5033110;28;20022;-82
2020/12/14 10:24:20;;;;;;;14.35;7.72;;;6.00;99.90;;;;;;5034250;28;20021;-82
2020/12/14 10:26:49;;;;;;;12.70;7.10;;;6.00;99.90;;;;;;5032043;28;20038;-82
2020/12/14 10:29:17;;;;;;;12.77;7.32;;;6.00;99.90;;;;;;5030162;28;20067;-82
2020/12/14 10:31:45;;;;;;;12.05;6.93;;;6.00;99.90;;;;;;5032192;28;20033;-82
2020/12/14 10:34:11;;;;;;;12.75;7.50;;;6.00;99.90;;;;;;5031714;28;20112;-82
2020/12/14 10:36:37;;;;;;;13.05;7.78;;;6.10;99.90;;;;;;5030133;28;20750;-80
2020/12/14 10:39:06;;;;;;;13.00;7.63;;;6.10;99.90;;;;;;5032416;28;20119;-80
2020/12/14 10:41:32;;;;;;;12.43;7.22;;;6.20;99.90;;;;;;5032433;28;20121;-80
2020/12/14 10:43:57;;;;;;;12.43;7.43;;;6.20;99.90;;;;;;5033206;28;20116;-80
2020/12/14 10:46:28;;;;;;;12.68;7.20;;;6.30;99.90;;;;;;5034042;28;20100;-80
2020/12/14 10:48:53;;;;;;;12.90;7.68;;;6.30;99.90;;;;;;5031149;28;20421;-81
2020/12/14 10:51:22;;;;;;;12.23;7.15;;;6.40;99.90;;;;;;5034417;28;20125;-80
2020/12/14 10:53:50;;;;;;;11.48;7.05;;;6.40;99.90;;;;;;5030652;28;20120;-80
2020/12/14 10:56:16;;;;;;;11.35;6.57;;;6.50;99.90;;;;;;5031969;28;20469;-80
2020/12/14 10:58:44;;;;;;;10.15;6.15;;;6.50;99.90;;;;;;5034690;28;20124;-81
2020/12/14 11:01:13;;;;;;;13.73;6.85;;;6.60;99.90;;;;;;5029394;28;20026;-80
2020/12/14 11:03:40;;;;;;;12.55;6.85;;;6.60;99.90;;;;;;5033949;28;20033;-81
2020/12/14 11:06:10;;;;;;;9.40;6.18;;;6.70;99.90;;;;;;5030435;28;20033;-80
2020/12/14 11:08:38;;;;;;;10.38;6.47;;;6.70;99.90;;;;;;5029952;28;20047;-80
2020/12/14 11:11:03;;;;;;;9.95;6.10;;;6.80;99.90;;;;;;5017801;28;20109;-80
2020/12/14 11:13:31;;;;;;;9.75;6.28;;;6.80;99.90;;;;;;5024939;28;20330;-80
2020/12/14 11:15:59;;;;;;;15.18;8.68;;;6.90;99.90;;;;;;5028913;28;20040;-80
2020/12/14 11:18:27;;;;;;;11.65;6.85;;;6.90;99.90;;;;;;5030860;28;20073;-80
2020/12/14 11:20:53;;;;;;;13.40;7.30;;;6.90;99.90;;;;;;5031990;28;20056;-80
2020/12/14 11:23:19;;;;;;;11.60;6.78;;;6.90;99.90;;;;;;5033371;28;20044;-80
2020/12/14 11:25:44;;;;;;;9.65;6.25;;;6.90;99.90;;;;;;5032938;28;20029;-80
2020/12/14 11:28:10;;;;;;;9.25;6.45;;;6.90;99.90;;;;;;5033950;28;20090;-80
2020/12/14 11:30:36;;;;;;;11.70;6.30;;;7.00;99.90;;;;;;5031707;28;20578;-80
2020/12/14 11:33:03;;;;;;;9.85;6.13;;;7.00;99.90;;;;;;5029814;28;20580;-81
2020/12/14 11:35:34;;;;;;;9.95;5.70;;;7.00;99.90;;;;;;5036261;28;20053;-82
2020/12/14 11:38:04;;;;;;;10.15;6.47;;;7.00;99.90;;;;;;5030819;28;20049;-80
2020/12/14 11:40:30;;;;;;;10.65;6.40;;;6.90;99.90;;;;;;5031393;28;20450;-81
2020/12/14 11:42:56;;;;;;;12.18;6.53;;;7.00;99.90;;;;;;5030402;28;20427;-80
2020/12/14 11:45:21;;;;;;;10.18;5.95;;;7.00;99.90;;;;;;5031593;28;20029;-80
2020/12/14 11:47:52;;;;;;;10.18;6.00;;;7.10;99.90;;;;;;5034492;28;20030;-82
2020/12/14 11:50:17;;;;;;;13.38;8.40;;;7.10;99.90;;;;;;5032416;28;20116;-82
2020/12/14 11:52:46;;;;;;;9.70;6.20;;;7.10;99.90;;;;;;5017047;28;20032;-81
2020/12/14 11:55:13;;;;;;;13.70;7.75;;;7.10;99.90;;;;;;5029354;28;20414;-82
2020/12/14 11:57:41;;;;;;;9.05;6.07;;;7.10;99.90;;;;;;5030724;28;20029;-81
2020/12/14 12:00:07;;;;;;;7.97;5.13;;;7.20;99.90;;;;;;5031523;28;20032;-82
2020/12/14 12:02:32;;;;;;;10.13;5.40;;;7.10;99.90;;;;;;5028675;28;20026;-80
2020/12/14 12:05:01;;;;;;;10.80;5.53;;;7.10;99.90;;;;;;5013011;28;20553;-81
2020/12/14 12:07:26;;;;;;;8.60;4.93;;;7.20;99.90;;;;;;5028335;28;20026;-80
2020/12/14 12:09:52;;;;;;;7.78;5.22;;;7.10;99.90;;;;;;5029304;28;20052;-80
2020/12/14 12:12:18;;;;;;;8.25;5.57;;;7.20;99.90;;;;;;5030905;28;20511;-80
2020/12/14 12:14:43;;;;;;;8.45;5.40;;;7.20;99.90;;;;;;5036004;28;20038;-81
2020/12/14 12:17:09;;;;;;;9.60;5.20;;;7.20;99.90;;;;;;5033452;28;20041;-80
2020/12/14 12:19:35;;;;;;;7.53;4.85;;;7.20;99.90;;;;;;5036854;28;20033;-81
2020/12/14 12:22:03;;;;;;;7.30;4.97;;;7.20;99.90;;;;;;5034631;28;20136;-84
2020/12/14 12:24:31;;;;;;;9.85;5.70;;;7.20;99.90;;;;;;5032257;28;20470;-81
2020/12/14 12:26:56;;;;;;;8.35;4.90;;;7.20;99.90;;;;;;5034876;28;20036;-81
2020/12/14 12:29:23;;;;;;;9.05;5.22;;;7.10;99.90;;;;;;5032580;28;20415;-81
2020/12/14 12:31:52;;;;;;;7.38;4.72;;;7.10;99.90;;;;;;5033049;28;20041;-81
2020/12/14 12:34:22;;;;;;;9.57;5.72;;;7.10;99.90;;;;;;5036941;28;20052;-81
2020/12/14 12:36:55;;;;;;;7.55;4.95;;;7.10;99.90;;;;;;5031218;28;20032;-81
2020/12/14 12:39:21;;;;;;;8.52;5.78;;;7.10;99.90;;;;;;5030490;28;20482;-81
2020/12/14 12:41:47;;;;;;;9.55;5.40;;;7.10;99.90;;;;;;5030619;28;20044;-81
2020/12/14 12:44:18;;;;;;;10.45;5.10;;;7.10;99.90;;;;;;5030984;28;20532;-81
2020/12/14 12:46:46;;;;;;;8.73;5.25;;;7.20;99.90;;;;;;5032264;28;20127;-82
2020/12/14 12:49:12;;;;;;;9.68;5.75;;;7.20;99.90;;;;;;5031752;28;20029;-81
2020/12/14 12:51:40;;;;;;;7.90;5.20;;;7.20;99.90;;;;;;5033041;28;20041;-81